Addison Township, Michigan
Current Conditions -  °F | °C
As of 1:13 PM on Sunday 25 Jan 2015 (Local Time) from KD95 Reporting Station
Broken Clouds Broken Clouds  
Wind Chill: 16°   Ceiling: 2500
Heat Index: 23°   Visibility: 10mi
Dew Point: 12°   Wind: 6mph
Humidity: 63%   Direction: 90°E
Pressure: 29.93"   Gusts: NA
Location:  42.8434°N, 83.1398°W
Report Text: KD95 251813Z AUTO 09005KT 10SM BKN025 M05/M11 A2993 RMK AO2 T10511112
Loading
Personal Weather Stations






























Interactive Weather Map New forecast layout! Learn more

10-Day Weather Forecast

Advertisements
Track Severe Weather on mobile